Terminal Aerodrome Forecast
Issued by NWS Wakefield, VA

Home | Current Version | Previous Version | Text Only | Print | Product List | Glossary On
Versions: 1 2 3 4 5 6 7 8 9 10 11 12 13 14 15 16 17 18 19 20 21 22 23 24 25 26
671
FTUS41 KAKQ 180133 AAB
TAFRIC
TAF AMD
KRIC 180133Z 1802/1824 21008KT P6SM BKN060
      TEMPO 1802/1804 BKN020
     FM180400 21008KT 4SM BR OVC015
     FM180600 22008KT 2SM BR OVC009
     FM181200 28006KT P6SM BKN120
     FM181800 31012G19KT P6SM SCT090=

USA.gov is the U.S. government's official web portal to all federal, state and local government web resources and services.